createdAt,value
2018-10-07T00:01:53.644Z,5.93
2018-10-07T00:04:22.509Z,5.70
2018-10-07T00:06:51.792Z,6.20
2018-10-07T00:09:20.555Z,6.40
2018-10-07T00:11:49.324Z,6.10
2018-10-07T00:14:18.040Z,6.17
2018-10-07T00:16:47.718Z,6.40
2018-10-07T00:19:16.394Z,6.40
2018-10-07T00:21:45.409Z,7.00
2018-10-07T00:24:14.243Z,6.70
2018-10-07T00:26:43.096Z,6.28
2018-10-07T00:29:12.269Z,6.50
2018-10-07T00:31:46.338Z,6.87
2018-10-07T00:34:15.080Z,7.77
2018-10-07T00:36:43.839Z,6.63
2018-10-07T00:39:12.933Z,6.20
2018-10-07T00:41:42.216Z,6.13
2018-10-07T00:44:11.785Z,6.13
2018-10-07T00:46:40.708Z,6.40
2018-10-07T00:49:09.543Z,6.87
2018-10-07T00:51:39.287Z,6.00
2018-10-07T00:54:08.331Z,6.57
2018-10-07T00:56:37.126Z,6.10
2018-10-07T00:59:06.156Z,6.93
2018-10-07T01:01:35.110Z,6.13
2018-10-07T01:04:04.511Z,6.17
2018-10-07T01:06:34.601Z,5.80
2018-10-07T01:09:03.926Z,6.60
2018-10-07T01:11:34.046Z,6.20
2018-10-07T01:14:03.052Z,6.63
2018-10-07T01:16:31.930Z,6.43
2018-10-07T01:19:01.358Z,6.20
2018-10-07T01:21:30.746Z,7.30
2018-10-07T01:24:00.467Z,7.10
2018-10-07T01:26:29.259Z,8.45
2018-10-07T01:28:58.470Z,7.80
2018-10-07T01:31:27.251Z,7.63
2018-10-07T01:33:56.071Z,7.57
2018-10-07T01:36:26.134Z,7.70
2018-10-07T01:38:55.487Z,6.45
2018-10-07T01:41:24.432Z,7.30
2018-10-07T01:43:53.906Z,8.47
2018-10-07T01:46:23.043Z,7.57
2018-10-07T01:48:52.325Z,7.20
2018-10-07T01:51:21.432Z,7.20
2018-10-07T01:53:50.353Z,7.50
2018-10-07T01:56:19.038Z,7.30
2018-10-07T01:58:48.075Z,6.53
2018-10-07T02:01:17.478Z,7.40
2018-10-07T02:03:46.227Z,6.77
2018-10-07T02:06:15.022Z,6.60
2018-10-07T02:08:44.047Z,6.30
2018-10-07T02:11:14.200Z,6.70
2018-10-07T02:13:43.422Z,6.37
2018-10-07T02:16:12.717Z,6.27
2018-10-07T02:18:41.837Z,6.40
2018-10-07T02:21:11.235Z,5.60
2018-10-07T02:23:40.373Z,7.27
2018-10-07T02:26:09.081Z,7.40
2018-10-07T02:28:37.866Z,6.30
2018-10-07T02:31:07.308Z,6.43
2018-10-07T02:33:36.251Z,6.60
2018-10-07T02:36:04.857Z,7.00
2018-10-07T02:38:34.880Z,7.73
2018-10-07T02:41:03.926Z,6.50
2018-10-07T02:43:33.160Z,7.77
2018-10-07T02:46:02.255Z,7.07
2018-10-07T02:48:32.081Z,6.28
2018-10-07T02:51:00.841Z,6.17
2018-10-07T02:53:30.031Z,6.70
2018-10-07T02:55:59.248Z,5.90
2018-10-07T02:58:28.742Z,6.00
2018-10-07T03:00:57.617Z,6.87
2018-10-07T03:03:26.527Z,6.27
2018-10-07T03:05:55.262Z,7.03
2018-10-07T03:08:24.012Z,7.27
2018-10-07T03:10:53.555Z,7.60
2018-10-07T03:13:22.568Z,6.20
2018-10-07T03:15:51.317Z,7.27
2018-10-07T03:18:20.881Z,7.00
2018-10-07T03:20:49.596Z,6.60
2018-10-07T03:23:18.716Z,6.65
2018-10-07T03:25:48.003Z,6.57
2018-10-07T03:28:17.335Z,6.80
2018-10-07T03:30:46.988Z,6.70
2018-10-07T03:33:15.713Z,6.80
2018-10-07T03:35:44.480Z,6.10
2018-10-07T03:38:13.260Z,7.37
2018-10-07T03:40:42.017Z,5.60
2018-10-07T03:43:11.481Z,6.57
2018-10-07T03:45:40.382Z,6.30
2018-10-07T03:48:10.643Z,6.40
2018-10-07T03:50:40.236Z,6.60
2018-10-07T03:53:09.446Z,6.20
2018-10-07T03:55:38.648Z,6.20
2018-10-07T03:58:07.547Z,6.20
2018-10-07T04:00:37.237Z,6.20
2018-10-07T04:03:06.416Z,5.77
2018-10-07T04:05:35.407Z,6.93
2018-10-07T04:08:04.376Z,6.83
2018-10-07T04:10:34.052Z,6.90
2018-10-07T04:13:03.224Z,6.80
2018-10-07T04:15:32.397Z,6.50
2018-10-07T04:18:01.527Z,6.80
2018-10-07T04:20:31.057Z,5.80
2018-10-07T04:23:00.086Z,6.43
2018-10-07T04:25:29.521Z,5.70
2018-10-07T04:27:58.483Z,6.97
2018-10-07T04:30:27.658Z,6.10
2018-10-07T04:32:56.819Z,6.70
2018-10-07T04:35:25.974Z,6.27
2018-10-07T04:37:54.718Z,5.97
2018-10-07T04:40:23.817Z,6.27
2018-10-07T04:42:52.573Z,6.50
2018-10-07T04:45:21.203Z,6.77
2018-10-07T04:47:51.202Z,7.10
2018-10-07T04:50:20.107Z,6.28
2018-10-07T04:52:49.868Z,5.73
2018-10-07T04:55:19.867Z,6.80
2018-10-07T04:57:48.897Z,5.60
2018-10-07T05:00:17.774Z,7.17
2018-10-07T05:02:46.641Z,6.23
2018-10-07T05:05:15.808Z,6.53
2018-10-07T05:07:45.099Z,6.20
2018-10-07T05:10:58.554Z,6.83
2018-10-07T05:13:30.249Z,6.37
2018-10-07T05:16:00.842Z,6.80
2018-10-07T05:18:30.807Z,6.50
2018-10-07T05:21:00.091Z,6.60
2018-10-07T05:23:28.813Z,5.90
2018-10-07T05:25:59.317Z,25.73
2018-10-07T05:28:28.885Z,7.35
2018-10-07T05:30:57.772Z,6.50
2018-10-07T05:33:26.631Z,6.83
2018-10-07T05:35:56.426Z,7.03
2018-10-07T05:38:25.432Z,6.53
2018-10-07T05:40:54.473Z,7.13
2018-10-07T05:43:23.252Z,7.77
2018-10-07T05:45:53.124Z,6.43
2018-10-07T05:48:22.177Z,6.60
2018-10-07T05:50:50.778Z,6.40
2018-10-07T05:53:19.848Z,6.63
2018-10-07T05:55:49.041Z,6.77
2018-10-07T05:58:18.318Z,5.97
2018-10-07T06:00:47.333Z,6.57
2018-10-07T06:03:19.417Z,6.43
2018-10-07T06:05:48.204Z,6.70
2018-10-07T06:08:18.904Z,6.97
2018-10-07T06:10:47.816Z,7.00
2018-10-07T06:13:16.382Z,6.10
2018-10-07T06:15:46.677Z,5.93
2018-10-07T06:18:15.555Z,5.87
2018-10-07T06:20:45.131Z,6.03
2018-10-07T06:23:15.009Z,6.63
2018-10-07T06:25:44.796Z,5.77
2018-10-07T06:28:13.488Z,6.47
2018-10-07T06:30:43.088Z,6.72
2018-10-07T06:33:12.289Z,6.30
2018-10-07T06:35:41.803Z,6.60
2018-10-07T06:38:10.655Z,6.60
2018-10-07T06:40:39.641Z,7.03
2018-10-07T06:43:08.779Z,6.50
2018-10-07T06:45:37.614Z,6.97
2018-10-07T06:48:07.131Z,7.17
2018-10-07T06:50:36.738Z,8.87
2018-10-07T06:53:06.029Z,6.67
2018-10-07T06:55:35.381Z,6.63
2018-10-07T06:58:04.443Z,6.77
2018-10-07T07:00:33.738Z,7.83
2018-10-07T07:03:02.488Z,7.33
2018-10-07T07:05:31.198Z,6.90
2018-10-07T07:08:00.540Z,7.00
2018-10-07T07:10:29.629Z,6.70
2018-10-07T07:12:59.947Z,6.42
2018-10-07T07:15:29.009Z,7.50
2018-10-07T07:17:58.262Z,6.40
2018-10-07T07:20:27.565Z,6.50
2018-10-07T07:22:56.404Z,5.73
2018-10-07T07:25:25.197Z,6.67
2018-10-07T07:27:54.299Z,7.25
2018-10-07T07:30:23.443Z,6.67
2018-10-07T07:32:53.637Z,6.57
2018-10-07T07:35:22.818Z,6.60
2018-10-07T07:37:52.048Z,7.20
2018-10-07T07:40:21.703Z,6.67
2018-10-07T07:42:51.057Z,6.50
2018-10-07T07:45:19.863Z,6.03
2018-10-07T07:47:48.990Z,6.00
2018-10-07T07:50:19.138Z,5.78
2018-10-07T07:52:48.209Z,7.20
2018-10-07T07:55:17.524Z,6.43
2018-10-07T07:57:46.722Z,7.10
2018-10-07T08:00:16.112Z,6.27
2018-10-07T08:02:45.292Z,7.27
2018-10-07T08:05:14.668Z,5.93
2018-10-07T08:07:44.057Z,6.70
2018-10-07T08:10:13.329Z,6.13
2018-10-07T08:12:42.191Z,5.75
2018-10-07T08:15:11.733Z,5.50
2018-10-07T08:17:40.680Z,5.50
2018-10-07T08:20:10.130Z,5.27
2018-10-07T08:22:39.199Z,5.40
2018-10-07T08:25:08.248Z,4.77
2018-10-07T08:27:38.490Z,4.73
2018-10-07T08:30:08.010Z,4.13
2018-10-07T08:32:37.885Z,3.60
2018-10-07T08:35:07.220Z,3.20
2018-10-07T08:37:36.251Z,3.97
2018-10-07T08:40:05.474Z,3.80
2018-10-07T08:42:36.430Z,3.73
2018-10-07T08:45:06.235Z,2.70
2018-10-07T08:47:35.120Z,3.10
2018-10-07T08:50:03.954Z,3.27
2018-10-07T08:52:33.384Z,2.70
2018-10-07T08:55:02.972Z,2.62
2018-10-07T08:57:32.104Z,2.37
2018-10-07T09:00:01.301Z,2.58
2018-10-07T09:02:30.540Z,2.60
2018-10-07T09:04:59.854Z,2.20
2018-10-07T09:07:28.843Z,2.33
2018-10-07T09:09:58.309Z,2.15
2018-10-07T09:12:27.344Z,1.85
2018-10-07T09:14:56.672Z,1.77
2018-10-07T09:17:25.795Z,1.80
2018-10-07T09:19:54.996Z,1.70
2018-10-07T09:22:24.251Z,1.92
2018-10-07T09:24:53.500Z,1.85
2018-10-07T09:27:24.238Z,1.55
2018-10-07T09:29:53.024Z,1.22
2018-10-07T09:32:22.200Z,1.60
2018-10-07T09:34:51.008Z,1.67
2018-10-07T09:37:19.843Z,2.02
2018-10-07T09:39:48.788Z,1.75
2018-10-07T09:42:19.943Z,2.25
2018-10-07T09:44:49.099Z,2.40
2018-10-07T09:47:18.505Z,3.13
2018-10-07T09:49:48.894Z,2.55
2018-10-07T09:52:17.854Z,2.73
2018-10-07T09:54:47.190Z,3.60
2018-10-07T09:57:16.284Z,3.07
2018-10-07T09:59:45.723Z,3.50
2018-10-07T10:02:14.665Z,3.40
2018-10-07T10:04:43.646Z,3.20
2018-10-07T10:07:13.280Z,3.52
2018-10-07T10:09:42.423Z,3.37
2018-10-07T10:12:11.570Z,3.67
2018-10-07T10:14:40.634Z,2.87
2018-10-07T10:17:12.943Z,2.50
2018-10-07T10:19:52.211Z,3.00
2018-10-07T10:22:27.385Z,1.72
2018-10-07T10:25:08.218Z,2.40
2018-10-07T10:27:50.338Z,2.00
2018-10-07T10:30:32.644Z,1.90
2018-10-07T10:33:09.678Z,2.30
2018-10-07T10:36:16.571Z,2.30
2018-10-07T10:39:56.785Z,2.75
2018-10-07T10:44:38.778Z,2.87
2018-10-07T10:47:27.590Z,3.15
2018-10-07T10:50:05.003Z,3.23
2018-10-07T10:52:41.265Z,3.73
2018-10-07T10:55:21.274Z,2.87
2018-10-07T10:57:56.054Z,2.77
2018-10-07T11:00:29.268Z,2.72
2018-10-07T11:03:21.984Z,2.15
2018-10-07T11:06:02.909Z,1.90
2018-10-07T11:08:38.043Z,1.90
2018-10-07T11:11:15.978Z,1.87
2018-10-07T11:13:57.902Z,1.70
2018-10-07T11:16:33.185Z,1.70
2018-10-07T11:19:10.129Z,1.07
2018-10-07T11:21:52.681Z,1.40
2018-10-07T11:25:37.349Z,1.47
2018-10-07T11:28:12.370Z,1.37
2018-10-07T11:31:51.819Z,1.52
2018-10-07T11:34:32.779Z,1.65
2018-10-07T11:37:37.860Z,1.47
2018-10-07T11:40:14.070Z,1.15
2018-10-07T11:43:20.639Z,1.15
2018-10-07T11:45:56.248Z,1.02
2018-10-07T11:48:34.444Z,1.30
2018-10-07T11:51:42.739Z,1.50
2018-10-07T11:54:12.581Z,2.10
2018-10-07T11:56:41.536Z,1.30
2018-10-07T11:59:10.352Z,1.40
2018-10-07T12:01:39.455Z,1.65
2018-10-07T12:04:08.540Z,1.40
2018-10-07T12:06:37.782Z,1.25
2018-10-07T12:09:07.171Z,1.00
2018-10-07T12:11:36.231Z,1.42
2018-10-07T12:14:05.455Z,1.10
2018-10-07T12:16:34.894Z,1.20
2018-10-07T12:19:04.149Z,1.85
2018-10-07T12:21:34.366Z,1.05
2018-10-07T12:24:03.438Z,1.15
2018-10-07T12:26:33.675Z,1.42
2018-10-07T12:29:02.703Z,0.98
2018-10-07T12:31:32.862Z,1.27
2018-10-07T12:34:02.358Z,1.47
2018-10-07T12:36:31.377Z,1.47
2018-10-07T12:39:00.399Z,0.98
2018-10-07T12:41:29.045Z,1.30
2018-10-07T12:43:58.072Z,1.50
2018-10-07T12:46:28.210Z,1.17
2018-10-07T12:48:57.595Z,1.10
2018-10-07T12:51:27.296Z,1.12
2018-10-07T12:53:56.275Z,1.65
2018-10-07T12:56:25.230Z,1.30
2018-10-07T12:58:54.504Z,0.98
2018-10-07T13:01:24.510Z,1.07
2018-10-07T13:03:54.783Z,1.20
2018-10-07T13:06:24.923Z,1.30
2018-10-07T13:08:54.497Z,1.35
2018-10-07T13:11:23.365Z,1.15
2018-10-07T13:13:52.645Z,1.40
2018-10-07T13:16:22.165Z,1.22
2018-10-07T13:18:50.981Z,1.35
2018-10-07T13:21:19.933Z,1.15
2018-10-07T13:23:48.828Z,1.57
2018-10-07T13:26:17.767Z,1.50
2018-10-07T13:28:46.975Z,1.27
2018-10-07T13:31:16.309Z,1.90
2018-10-07T13:33:46.080Z,1.27
2018-10-07T13:36:15.623Z,1.80
2018-10-07T13:38:45.756Z,1.80
2018-10-07T13:41:15.111Z,1.45
2018-10-07T13:43:44.339Z,1.42
2018-10-07T13:46:13.627Z,1.98
2018-10-07T13:48:42.560Z,2.15
2018-10-07T13:51:11.533Z,1.95
2018-10-07T13:53:41.320Z,1.65
2018-10-07T13:56:10.330Z,2.22
2018-10-07T13:58:39.869Z,1.75
2018-10-07T14:01:08.828Z,1.65
2018-10-07T14:03:38.598Z,2.07
2018-10-07T14:06:08.455Z,1.60
2018-10-07T14:08:37.601Z,1.77
2018-10-07T14:11:08.265Z,1.50
2018-10-07T14:13:37.138Z,1.70
2018-10-07T14:16:06.079Z,1.95
2018-10-07T14:18:34.815Z,1.98
2018-10-07T14:21:03.727Z,2.25
2018-10-07T14:23:32.718Z,2.47
2018-10-07T14:26:01.654Z,2.23
2018-10-07T14:28:31.584Z,2.63
2018-10-07T14:31:00.601Z,2.97
2018-10-07T14:33:29.744Z,3.20
2018-10-07T14:35:58.955Z,2.93
2018-10-07T14:38:27.867Z,3.40
2018-10-07T14:40:56.692Z,3.25
2018-10-07T14:43:26.645Z,3.40
2018-10-07T14:45:55.853Z,3.00
2018-10-07T14:48:24.691Z,3.03
2018-10-07T14:50:54.155Z,2.23
2018-10-07T14:53:24.614Z,3.20
2018-10-07T14:55:54.705Z,3.27
2018-10-07T14:58:23.785Z,3.30
2018-10-07T15:00:53.069Z,3.50
2018-10-07T15:03:22.329Z,2.80
2018-10-07T15:05:51.144Z,3.40
2018-10-07T15:08:20.823Z,3.47
2018-10-07T15:10:50.936Z,3.80
2018-10-07T15:13:20.204Z,3.23
2018-10-07T15:15:49.598Z,3.90
2018-10-07T15:18:19.363Z,3.40
2018-10-07T15:20:49.036Z,4.07
2018-10-07T15:23:18.056Z,2.80
2018-10-07T15:25:47.329Z,3.20
2018-10-07T15:28:16.430Z,3.73
2018-10-07T15:30:45.479Z,3.40
2018-10-07T15:33:14.834Z,4.40
2018-10-07T15:35:43.907Z,3.50
2018-10-07T15:38:13.656Z,3.53
2018-10-07T15:40:42.603Z,3.73
2018-10-07T15:43:12.054Z,3.20
2018-10-07T15:45:41.138Z,4.67
2018-10-07T15:48:10.356Z,3.90
2018-10-07T15:50:39.449Z,4.27
2018-10-07T15:53:08.778Z,4.15
2018-10-07T15:55:38.519Z,4.20
2018-10-07T15:58:08.191Z,4.00
2018-10-07T16:00:37.857Z,3.90
2018-10-07T16:03:07.002Z,4.00
2018-10-07T16:05:35.776Z,4.07
2018-10-07T16:08:05.134Z,3.97
2018-10-07T16:10:34.250Z,4.20
2018-10-07T16:22:56.921Z,4.53
2018-10-07T16:25:25.800Z,4.57
2018-10-07T16:27:54.876Z,3.90
2018-10-07T16:30:24.156Z,3.60
2018-10-07T16:32:53.244Z,3.70
2018-10-07T16:35:22.591Z,3.67
2018-10-07T16:37:51.794Z,4.17
2018-10-07T16:40:20.624Z,5.03
2018-10-07T16:42:49.481Z,4.33
2018-10-07T16:45:18.772Z,4.43
2018-10-07T16:47:47.705Z,3.63
2018-10-07T16:50:16.874Z,4.07
2018-10-07T16:52:46.418Z,3.93
2018-10-07T16:55:15.376Z,4.57
2018-10-07T16:57:44.130Z,4.47
2018-10-07T17:00:13.945Z,3.80
2018-10-07T17:02:42.677Z,5.27
2018-10-07T17:05:12.221Z,5.40
2018-10-07T17:07:41.266Z,5.20
2018-10-07T17:10:10.552Z,4.00
2018-10-07T17:12:40.201Z,5.20
2018-10-07T17:15:09.155Z,6.40
2018-10-07T17:17:38.316Z,63.57
2018-10-07T17:20:08.384Z,9.57
2018-10-07T17:22:37.694Z,6.13
2018-10-07T17:25:07.009Z,6.00
2018-10-07T17:27:36.159Z,6.37
2018-10-07T17:30:05.306Z,6.80
2018-10-07T17:32:34.941Z,5.30
2018-10-07T17:35:03.926Z,6.07
2018-10-07T17:37:33.142Z,5.77
2018-10-07T17:40:02.277Z,5.70
2018-10-07T17:42:31.582Z,6.50
2018-10-07T17:45:00.626Z,6.67
2018-10-07T17:47:29.980Z,7.30
2018-10-07T17:49:59.235Z,7.60
2018-10-07T17:52:28.572Z,6.33
2018-10-07T17:54:57.909Z,6.03
2018-10-07T17:57:27.820Z,6.20
2018-10-07T17:59:57.138Z,7.20
2018-10-07T18:02:26.516Z,7.13
2018-10-07T18:04:55.520Z,8.17
2018-10-07T18:07:24.745Z,7.90
2018-10-07T18:09:54.032Z,7.30
2018-10-07T18:12:23.625Z,7.50
2018-10-07T18:14:52.369Z,7.63
2018-10-07T18:17:21.701Z,9.43
2018-10-07T18:19:50.806Z,8.23
2018-10-07T18:22:19.866Z,8.80
2018-10-07T18:24:49.187Z,8.60
2018-10-07T18:27:18.492Z,7.50
2018-10-07T18:29:48.001Z,7.63
2018-10-07T18:32:17.105Z,8.97
2018-10-07T18:34:46.392Z,8.73
2018-10-07T18:37:16.696Z,8.30
2018-10-07T18:39:46.496Z,9.73
2018-10-07T18:42:15.730Z,9.57
2018-10-07T18:44:45.916Z,9.47
2018-10-07T18:47:15.291Z,10.77
2018-10-07T18:49:44.493Z,10.40
2018-10-07T18:52:14.026Z,11.00
2018-10-07T18:54:43.165Z,11.30
2018-10-07T18:57:12.531Z,10.63
2018-10-07T18:59:41.580Z,11.47
2018-10-07T19:02:10.399Z,12.90
2018-10-07T19:04:39.779Z,13.00
2018-10-07T19:07:08.999Z,13.23
2018-10-07T19:09:38.170Z,11.90
2018-10-07T19:12:07.680Z,12.07
2018-10-07T19:14:37.721Z,12.27
2018-10-07T19:17:07.387Z,12.30
2018-10-07T19:19:36.556Z,12.23
2018-10-07T19:22:06.372Z,11.90
2018-10-07T19:24:36.345Z,11.63
2018-10-07T19:27:05.670Z,12.80
2018-10-07T19:29:35.124Z,10.97
2018-10-07T19:32:04.362Z,11.03
2018-10-07T19:34:33.702Z,12.23
2018-10-07T19:37:02.695Z,12.33
2018-10-07T19:39:31.708Z,11.53
2018-10-07T19:42:00.947Z,11.33
2018-10-07T19:44:30.301Z,11.77
2018-10-07T19:46:59.192Z,10.77
2018-10-07T19:49:28.895Z,11.20
2018-10-07T19:51:57.917Z,13.23
2018-10-07T19:54:27.250Z,11.80
2018-10-07T19:56:56.415Z,12.17
2018-10-07T19:59:25.421Z,10.67
2018-10-07T20:01:54.897Z,13.50
2018-10-07T20:04:24.009Z,14.07
2018-10-07T20:06:52.987Z,11.83
2018-10-07T20:09:21.822Z,13.00
2018-10-07T20:11:51.232Z,13.43
2018-10-07T20:14:20.546Z,12.10
2018-10-07T20:16:50.403Z,14.43
2018-10-07T20:19:19.628Z,13.70
2018-10-07T20:21:49.032Z,13.33
2018-10-07T20:24:18.188Z,12.47
2018-10-07T20:26:47.297Z,12.83
2018-10-07T20:29:16.612Z,14.60
2018-10-07T20:31:45.845Z,14.47
2018-10-07T20:34:15.417Z,13.43
2018-10-07T20:36:44.600Z,13.97
2018-10-07T20:39:14.263Z,14.80
2018-10-07T20:41:43.591Z,14.70
2018-10-07T20:44:12.722Z,14.80
2018-10-07T20:46:42.514Z,13.60
2018-10-07T20:49:11.378Z,15.27
2018-10-07T20:51:40.229Z,15.53
2018-10-07T20:54:09.388Z,21.43
2018-10-07T20:56:39.722Z,15.20
2018-10-07T20:59:08.803Z,15.20
2018-10-07T21:01:39.351Z,15.07
2018-10-07T21:04:08.191Z,14.30
2018-10-07T21:06:37.534Z,15.20
2018-10-07T21:09:09.640Z,14.43
2018-10-07T21:11:38.793Z,14.93
2018-10-07T21:14:08.210Z,14.77
2018-10-07T21:16:38.317Z,14.93
2018-10-07T21:19:07.053Z,14.80
2018-10-07T21:21:35.760Z,14.87
2018-10-07T21:24:07.076Z,15.20
2018-10-07T21:26:36.075Z,15.07
2018-10-07T21:29:05.307Z,14.40
2018-10-07T21:31:34.256Z,14.47
2018-10-07T21:34:03.016Z,13.13
2018-10-07T21:36:32.682Z,14.17
2018-10-07T21:39:02.360Z,13.80
2018-10-07T21:41:31.428Z,14.70
2018-10-07T21:44:00.296Z,15.17
2018-10-07T21:46:28.908Z,14.30
2018-10-07T21:48:57.713Z,14.00
2018-10-07T21:51:27.444Z,13.23
2018-10-07T21:53:56.631Z,13.80
2018-10-07T21:56:25.725Z,15.10
2018-10-07T21:58:56.357Z,14.90
2018-10-07T22:01:25.378Z,14.00
2018-10-07T22:03:54.441Z,13.73
2018-10-07T22:06:23.667Z,14.00
2018-10-07T22:08:52.935Z,13.40
2018-10-07T22:11:22.121Z,13.13
2018-10-07T22:13:51.336Z,13.83
2018-10-07T22:16:20.924Z,13.80
2018-10-07T22:18:49.751Z,16.37
2018-10-07T22:21:19.029Z,15.43
2018-10-07T22:23:47.846Z,15.00
2018-10-07T22:26:16.632Z,14.10
2018-10-07T22:28:45.850Z,14.00
2018-10-07T22:31:14.902Z,14.37
2018-10-07T22:33:43.995Z,16.13
2018-10-07T22:36:13.359Z,16.70
2018-10-07T22:38:42.551Z,16.30
2018-10-07T22:41:11.830Z,15.40
2018-10-07T22:43:42.208Z,17.50
2018-10-07T22:46:11.831Z,16.17
2018-10-07T22:48:40.535Z,17.30
2018-10-07T22:51:09.753Z,18.10
2018-10-07T22:53:38.562Z,16.17
2018-10-07T22:56:07.283Z,16.50
2018-10-07T22:58:36.468Z,15.63
2018-10-07T23:01:05.793Z,14.10
2018-10-07T23:03:34.868Z,13.57
2018-10-07T23:06:04.226Z,14.37
2018-10-07T23:08:33.276Z,14.40
2018-10-07T23:11:02.656Z,13.80
2018-10-07T23:13:31.402Z,16.30
2018-10-07T23:16:00.206Z,15.30
2018-10-07T23:18:29.752Z,15.57
2018-10-07T23:20:59.087Z,16.40
2018-10-07T23:23:27.757Z,14.37
2018-10-07T23:25:56.832Z,14.77
2018-10-07T23:28:25.612Z,15.37
2018-10-07T23:30:54.371Z,16.60
2018-10-07T23:33:23.132Z,18.20
2018-10-07T23:35:52.514Z,17.40
2018-10-07T23:38:21.273Z,17.33
2018-10-07T23:40:52.177Z,16.80
2018-10-07T23:43:21.020Z,15.17
2018-10-07T23:45:50.271Z,16.77
2018-10-07T23:48:19.871Z,16.67
2018-10-07T23:50:48.948Z,16.43
2018-10-07T23:53:17.733Z,17.90
2018-10-07T23:55:46.474Z,16.33
2018-10-07T23:58:15.702Z,15.53
